sensor_id;sensor_type;location;lat;lon;timestamp;P1;durP1;ratioP1;P2;durP2;ratioP2
55037;SDS011;40937;53.594;10.034;2024-01-10T00:00:47;28.35;;;24.38;;
55037;SDS011;40937;53.594;10.034;2024-01-10T00:03:15;28.23;;;22.83;;
55037;SDS011;40937;53.594;10.034;2024-01-10T00:05:43;28.85;;;22.83;;
55037;SDS011;40937;53.594;10.034;2024-01-10T00:08:10;30.25;;;23.48;;
55037;SDS011;40937;53.594;10.034;2024-01-10T00:10:37;27.85;;;21.85;;
55037;SDS011;40937;53.594;10.034;2024-01-10T00:13:05;25.38;;;22.77;;
55037;SDS011;40937;53.594;10.034;2024-01-10T00:15:32;24.30;;;20.92;;
55037;SDS011;40937;53.594;10.034;2024-01-10T00:17:59;22.00;;;19.63;;
55037;SDS011;40937;53.594;10.034;2024-01-10T00:20:28;25.10;;;20.55;;
55037;SDS011;40937;53.594;10.034;2024-01-10T00:22:55;21.75;;;19.40;;
55037;SDS011;40937;53.594;10.034;2024-01-10T00:25:23;24.20;;;18.98;;
55037;SDS011;40937;53.594;10.034;2024-01-10T00:27:50;44.95;;;19.08;;
55037;SDS011;40937;53.594;10.034;2024-01-10T00:30:17;27.88;;;20.02;;
55037;SDS011;40937;53.594;10.034;2024-01-10T00:32:45;24.63;;;19.15;;
55037;SDS011;40937;53.594;10.034;2024-01-10T00:35:12;24.25;;;19.48;;
55037;SDS011;40937;53.594;10.034;2024-01-10T00:37:40;25.42;;;21.73;;
55037;SDS011;40937;53.594;10.034;2024-01-10T00:40:08;28.05;;;21.17;;
55037;SDS011;40937;53.594;10.034;2024-01-10T00:42:35;28.52;;;21.40;;
55037;SDS011;40937;53.594;10.034;2024-01-10T00:45:02;30.38;;;20.92;;
55037;SDS011;40937;53.594;10.034;2024-01-10T00:47:30;30.73;;;22.77;;
55037;SDS011;40937;53.594;10.034;2024-01-10T00:49:57;28.77;;;21.58;;
55037;SDS011;40937;53.594;10.034;2024-01-10T00:52:25;33.25;;;21.92;;
55037;SDS011;40937;53.594;10.034;2024-01-10T00:54:53;28.60;;;22.17;;
55037;SDS011;40937;53.594;10.034;2024-01-10T00:57:20;27.75;;;21.13;;
55037;SDS011;40937;53.594;10.034;2024-01-10T00:59:47;31.77;;;22.02;;
55037;SDS011;40937;53.594;10.034;2024-01-10T01:02:14;29.00;;;21.67;;
55037;SDS011;40937;53.594;10.034;2024-01-10T01:04:42;50.65;;;21.58;;
55037;SDS011;40937;53.594;10.034;2024-01-10T01:07:09;32.10;;;21.52;;
55037;SDS011;40937;53.594;10.034;2024-01-10T01:09:36;31.42;;;22.70;;
55037;SDS011;40937;53.594;10.034;2024-01-10T01:12:05;29.02;;;21.20;;
55037;SDS011;40937;53.594;10.034;2024-01-10T01:14:32;29.35;;;22.08;;
55037;SDS011;40937;53.594;10.034;2024-01-10T01:17:00;30.90;;;21.52;;
55037;SDS011;40937;53.594;10.034;2024-01-10T01:19:27;28.45;;;21.63;;
55037;SDS011;40937;53.594;10.034;2024-01-10T01:21:54;27.85;;;21.08;;
55037;SDS011;40937;53.594;10.034;2024-01-10T01:24:21;27.90;;;20.58;;
55037;SDS011;40937;53.594;10.034;2024-01-10T01:26:48;32.03;;;22.30;;
55037;SDS011;40937;53.594;10.034;2024-01-10T01:29:17;24.95;;;20.60;;
55037;SDS011;40937;53.594;10.034;2024-01-10T01:31:44;27.50;;;21.13;;
55037;SDS011;40937;53.594;10.034;2024-01-10T01:34:11;29.02;;;20.45;;
55037;SDS011;40937;53.594;10.034;2024-01-10T01:36:39;33.53;;;23.02;;
55037;SDS011;40937;53.594;10.034;2024-01-10T01:39:06;28.27;;;22.30;;
55037;SDS011;40937;53.594;10.034;2024-01-10T01:41:33;31.30;;;23.77;;
55037;SDS011;40937;53.594;10.034;2024-01-10T01:44:00;33.55;;;22.50;;
55037;SDS011;40937;53.594;10.034;2024-01-10T01:46:29;31.48;;;22.48;;
55037;SDS011;40937;53.594;10.034;2024-01-10T01:48:58;33.65;;;22.80;;
55037;SDS011;40937;53.594;10.034;2024-01-10T01:51:25;34.85;;;24.52;;
55037;SDS011;40937;53.594;10.034;2024-01-10T01:53:55;33.25;;;24.17;;
55037;SDS011;40937;53.594;10.034;2024-01-10T01:56:23;36.88;;;23.23;;
55037;SDS011;40937;53.594;10.034;2024-01-10T01:58:51;35.70;;;22.05;;
55037;SDS011;40937;53.594;10.034;2024-01-10T02:01:18;30.30;;;23.10;;
55037;SDS011;40937;53.594;10.034;2024-01-10T02:03:48;30.52;;;21.98;;
55037;SDS011;40937;53.594;10.034;2024-01-10T02:06:15;29.05;;;22.85;;
55037;SDS011;40937;53.594;10.034;2024-01-10T02:08:43;33.10;;;22.30;;
55037;SDS011;40937;53.594;10.034;2024-01-10T02:11:10;35.28;;;23.58;;
55037;SDS011;40937;53.594;10.034;2024-01-10T02:13:37;33.80;;;20.85;;
55037;SDS011;40937;53.594;10.034;2024-01-10T02:16:05;27.50;;;20.23;;
55037;SDS011;40937;53.594;10.034;2024-01-10T02:18:32;26.77;;;19.95;;
55037;SDS011;40937;53.594;10.034;2024-01-10T02:21:02;54.97;;;19.45;;
55037;SDS011;40937;53.594;10.034;2024-01-10T02:23:29;26.67;;;19.13;;
55037;SDS011;40937;53.594;10.034;2024-01-10T02:25:57;26.50;;;20.60;;
55037;SDS011;40937;53.594;10.034;2024-01-10T02:28:25;30.63;;;20.13;;
55037;SDS011;40937;53.594;10.034;2024-01-10T02:30:52;25.42;;;19.65;;
55037;SDS011;40937;53.594;10.034;2024-01-10T02:33:21;27.38;;;19.00;;
55037;SDS011;40937;53.594;10.034;2024-01-10T02:35:48;24.20;;;18.42;;
55037;SDS011;40937;53.594;10.034;2024-01-10T02:38:15;26.95;;;19.65;;
55037;SDS011;40937;53.594;10.034;2024-01-10T02:40:46;25.67;;;20.75;;
55037;SDS011;40937;53.594;10.034;2024-01-10T02:43:14;24.27;;;20.35;;
55037;SDS011;40937;53.594;10.034;2024-01-10T02:45:41;25.83;;;20.85;;
55037;SDS011;40937;53.594;10.034;2024-01-10T02:48:09;24.65;;;19.92;;
55037;SDS011;40937;53.594;10.034;2024-01-10T02:50:36;25.60;;;21.77;;
55037;SDS011;40937;53.594;10.034;2024-01-10T02:53:04;23.33;;;19.45;;
55037;SDS011;40937;53.594;10.034;2024-01-10T02:55:31;25.90;;;21.52;;
55037;SDS011;40937;53.594;10.034;2024-01-10T02:57:58;23.65;;;20.65;;
55037;SDS011;40937;53.594;10.034;2024-01-10T03:00:27;27.00;;;21.40;;
55037;SDS011;40937;53.594;10.034;2024-01-10T03:02:54;24.30;;;20.50;;
55037;SDS011;40937;53.594;10.034;2024-01-10T03:05:22;27.33;;;22.02;;
55037;SDS011;40937;53.594;10.034;2024-01-10T03:07:49;25.23;;;20.73;;
55037;SDS011;40937;53.594;10.034;2024-01-10T03:10:16;29.48;;;23.15;;
55037;SDS011;40937;53.594;10.034;2024-01-10T03:12:43;29.55;;;23.55;;
55037;SDS011;40937;53.594;10.034;2024-01-10T03:15:10;31.75;;;25.20;;
55037;SDS011;40937;53.594;10.034;2024-01-10T03:17:39;32.53;;;25.38;;
55037;SDS011;40937;53.594;10.034;2024-01-10T03:20:07;30.83;;;24.88;;
55037;SDS011;40937;53.594;10.034;2024-01-10T03:22:34;30.13;;;24.67;;
55037;SDS011;40937;53.594;10.034;2024-01-10T03:25:03;36.30;;;25.77;;
55037;SDS011;40937;53.594;10.034;2024-01-10T03:27:30;37.38;;;27.25;;
55037;SDS011;40937;53.594;10.034;2024-01-10T03:29:57;34.55;;;25.77;;
55037;SDS011;40937;53.594;10.034;2024-01-10T03:32:25;35.25;;;26.88;;
55037;SDS011;40937;53.594;10.034;2024-01-10T03:34:54;33.72;;;25.98;;
55037;SDS011;40937;53.594;10.034;2024-01-10T03:37:21;37.40;;;27.35;;
55037;SDS011;40937;53.594;10.034;2024-01-10T03:39:48;30.77;;;25.05;;
55037;SDS011;40937;53.594;10.034;2024-01-10T03:42:15;33.17;;;25.40;;
55037;SDS011;40937;53.594;10.034;2024-01-10T03:44:42;32.33;;;23.40;;
55037;SDS011;40937;53.594;10.034;2024-01-10T03:47:10;29.33;;;23.17;;
55037;SDS011;40937;53.594;10.034;2024-01-10T03:49:37;29.85;;;22.95;;
55037;SDS011;40937;53.594;10.034;2024-01-10T03:52:05;26.85;;;22.90;;
55037;SDS011;40937;53.594;10.034;2024-01-10T03:54:32;26.67;;;21.92;;
55037;SDS011;40937;53.594;10.034;2024-01-10T03:57:00;28.70;;;23.38;;
55037;SDS011;40937;53.594;10.034;2024-01-10T03:59:27;26.05;;;22.92;;
55037;SDS011;40937;53.594;10.034;2024-01-10T04:01:54;28.00;;;24.08;;
55037;SDS011;40937;53.594;10.034;2024-01-10T04:04:22;28.05;;;22.50;;
55037;SDS011;40937;53.594;10.034;2024-01-10T04:06:49;26.58;;;22.80;;
55037;SDS011;40937;53.594;10.034;2024-01-10T04:09:20;28.45;;;23.35;;
55037;SDS011;40937;53.594;10.034;2024-01-10T04:11:47;27.15;;;23.98;;
55037;SDS011;40937;53.594;10.034;2024-01-10T04:14:14;24.17;;;21.70;;
55037;SDS011;40937;53.594;10.034;2024-01-10T04:16:42;29.17;;;22.38;;
55037;SDS011;40937;53.594;10.034;2024-01-10T04:19:09;24.77;;;21.95;;
55037;SDS011;40937;53.594;10.034;2024-01-10T04:21:36;26.58;;;22.05;;
55037;SDS011;40937;53.594;10.034;2024-01-10T04:24:03;27.77;;;23.00;;
55037;SDS011;40937;53.594;10.034;2024-01-10T04:26:32;25.75;;;22.95;;
55037;SDS011;40937;53.594;10.034;2024-01-10T04:28:59;26.02;;;22.13;;
55037;SDS011;40937;53.594;10.034;2024-01-10T04:31:26;29.55;;;23.58;;
55037;SDS011;40937;53.594;10.034;2024-01-10T04:33:54;26.55;;;23.40;;
55037;SDS011;40937;53.594;10.034;2024-01-10T04:36:21;26.95;;;22.10;;
55037;SDS011;40937;53.594;10.034;2024-01-10T04:38:48;28.08;;;24.15;;
55037;SDS011;40937;53.594;10.034;2024-01-10T04:41:15;28.42;;;23.63;;
55037;SDS011;40937;53.594;10.034;2024-01-10T04:43:44;27.77;;;22.77;;
55037;SDS011;40937;53.594;10.034;2024-01-10T04:46:11;25.40;;;22.10;;
55037;SDS011;40937;53.594;10.034;2024-01-10T04:48:38;23.63;;;21.30;;
55037;SDS011;40937;53.594;10.034;2024-01-10T04:51:06;24.00;;;19.67;;
55037;SDS011;40937;53.594;10.034;2024-01-10T04:53:33;20.58;;;17.55;;
55037;SDS011;40937;53.594;10.034;2024-01-10T04:56:00;17.80;;;15.95;;
55037;SDS011;40937;53.594;10.034;2024-01-10T04:58:27;16.50;;;14.18;;
55037;SDS011;40937;53.594;10.034;2024-01-10T05:00:57;16.77;;;15.07;;
55037;SDS011;40937;53.594;10.034;2024-01-10T05:03:24;17.65;;;15.25;;
55037;SDS011;40937;53.594;10.034;2024-01-10T05:05:51;16.70;;;15.00;;
55037;SDS011;40937;53.594;10.034;2024-01-10T05:08:18;15.98;;;14.02;;
55037;SDS011;40937;53.594;10.034;2024-01-10T05:10:46;15.63;;;14.02;;
55037;SDS011;40937;53.594;10.034;2024-01-10T05:13:13;14.48;;;12.98;;
55037;SDS011;40937;53.594;10.034;2024-01-10T05:15:40;15.55;;;13.88;;
55037;SDS011;40937;53.594;10.034;2024-01-10T05:18:08;14.40;;;12.98;;
55037;SDS011;40937;53.594;10.034;2024-01-10T05:20:36;14.65;;;12.68;;
55037;SDS011;40937;53.594;10.034;2024-01-10T05:23:03;15.18;;;13.68;;
55037;SDS011;40937;53.594;10.034;2024-01-10T05:25:31;13.68;;;12.38;;
55037;SDS011;40937;53.594;10.034;2024-01-10T05:27:58;14.38;;;12.88;;
55037;SDS011;40937;53.594;10.034;2024-01-10T05:30:25;14.65;;;12.65;;
55037;SDS011;40937;53.594;10.034;2024-01-10T05:32:52;14.18;;;12.35;;
55037;SDS011;40937;53.594;10.034;2024-01-10T05:35:21;14.68;;;13.38;;
55037;SDS011;40937;53.594;10.034;2024-01-10T05:37:48;14.38;;;12.98;;
55037;SDS011;40937;53.594;10.034;2024-01-10T05:40:15;15.60;;;13.57;;
55037;SDS011;40937;53.594;10.034;2024-01-10T05:42:42;15.05;;;12.80;;
55037;SDS011;40937;53.594;10.034;2024-01-10T05:45:10;13.15;;;11.77;;
55037;SDS011;40937;53.594;10.034;2024-01-10T05:47:37;13.00;;;11.77;;
55037;SDS011;40937;53.594;10.034;2024-01-10T05:50:07;13.50;;;11.80;;
55037;SDS011;40937;53.594;10.034;2024-01-10T05:52:36;14.52;;;12.65;;
55037;SDS011;40937;53.594;10.034;2024-01-10T05:55:03;14.07;;;12.75;;
55037;SDS011;40937;53.594;10.034;2024-01-10T05:57:34;14.10;;;12.70;;
55037;SDS011;40937;53.594;10.034;2024-01-10T06:00:02;13.27;;;11.98;;
55037;SDS011;40937;53.594;10.034;2024-01-10T06:02:34;12.68;;;11.48;;
55037;SDS011;40937;53.594;10.034;2024-01-10T06:05:01;13.63;;;11.95;;
55037;SDS011;40937;53.594;10.034;2024-01-10T06:07:30;13.60;;;11.65;;
55037;SDS011;40937;53.594;10.034;2024-01-10T06:09:59;12.10;;;10.90;;
55037;SDS011;40937;53.594;10.034;2024-01-10T06:12:25;11.43;;;10.38;;
55037;SDS011;40937;53.594;10.034;2024-01-10T06:14:52;12.65;;;9.95;;
55037;SDS011;40937;53.594;10.034;2024-01-10T06:17:20;11.40;;;10.30;;
55037;SDS011;40937;53.594;10.034;2024-01-10T06:19:47;12.02;;;10.75;;
55037;SDS011;40937;53.594;10.034;2024-01-10T06:22:14;12.18;;;10.93;;
55037;SDS011;40937;53.594;10.034;2024-01-10T06:24:43;10.50;;;9.40;;
55037;SDS011;40937;53.594;10.034;2024-01-10T06:27:11;11.43;;;9.40;;
55037;SDS011;40937;53.594;10.034;2024-01-10T06:29:38;14.13;;;10.85;;
55037;SDS011;40937;53.594;10.034;2024-01-10T06:32:06;12.82;;;10.80;;
55037;SDS011;40937;53.594;10.034;2024-01-10T06:34:33;11.43;;;10.23;;
55037;SDS011;40937;53.594;10.034;2024-01-10T06:37:00;11.32;;;10.23;;
55037;SDS011;40937;53.594;10.034;2024-01-10T06:39:28;11.88;;;10.75;;
55037;SDS011;40937;53.594;10.034;2024-01-10T06:41:55;13.85;;;11.15;;
55037;SDS011;40937;53.594;10.034;2024-01-10T06:44:25;13.98;;;12.38;;
55037;SDS011;40937;53.594;10.034;2024-01-10T06:46:53;13.05;;;11.77;;
55037;SDS011;40937;53.594;10.034;2024-01-10T06:49:20;13.18;;;11.88;;
55037;SDS011;40937;53.594;10.034;2024-01-10T06:51:47;12.98;;;11.68;;
55037;SDS011;40937;53.594;10.034;2024-01-10T06:54:15;13.27;;;11.23;;
55037;SDS011;40937;53.594;10.034;2024-01-10T06:56:44;12.65;;;10.63;;
55037;SDS011;40937;53.594;10.034;2024-01-10T06:59:11;11.45;;;9.65;;
55037;SDS011;40937;53.594;10.034;2024-01-10T07:01:40;10.40;;;9.50;;
55037;SDS011;40937;53.594;10.034;2024-01-10T07:04:07;10.63;;;9.63;;
55037;SDS011;40937;53.594;10.034;2024-01-10T07:06:34;10.95;;;10.05;;
55037;SDS011;40937;53.594;10.034;2024-01-10T07:09:01;11.63;;;10.02;;
55037;SDS011;40937;53.594;10.034;2024-01-10T07:11:31;11.30;;;9.93;;
55037;SDS011;40937;53.594;10.034;2024-01-10T07:13:58;13.13;;;11.15;;
55037;SDS011;40937;53.594;10.034;2024-01-10T07:16:26;10.93;;;9.93;;
55037;SDS011;40937;53.594;10.034;2024-01-10T07:18:55;10.32;;;9.43;;
55037;SDS011;40937;53.594;10.034;2024-01-10T07:21:22;11.27;;;10.10;;
55037;SDS011;40937;53.594;10.034;2024-01-10T07:23:49;12.20;;;11.07;;
55037;SDS011;40937;53.594;10.034;2024-01-10T07:26:16;12.50;;;11.35;;
55037;SDS011;40937;53.594;10.034;2024-01-10T07:28:43;11.95;;;10.85;;
55037;SDS011;40937;53.594;10.034;2024-01-10T07:31:11;14.00;;;11.40;;
55037;SDS011;40937;53.594;10.034;2024-01-10T07:33:38;12.07;;;10.85;;
55037;SDS011;40937;53.594;10.034;2024-01-10T07:36:07;14.20;;;11.40;;
55037;SDS011;40937;53.594;10.034;2024-01-10T07:38:34;12.02;;;10.93;;
55037;SDS011;40937;53.594;10.034;2024-01-10T07:41:03;12.45;;;11.25;;
55037;SDS011;40937;53.594;10.034;2024-01-10T07:43:30;11.52;;;10.52;;
55037;SDS011;40937;53.594;10.034;2024-01-10T07:45:57;11.75;;;10.55;;
55037;SDS011;40937;53.594;10.034;2024-01-10T07:48:26;12.23;;;10.70;;
55037;SDS011;40937;53.594;10.034;2024-01-10T07:50:56;14.57;;;13.10;;
55037;SDS011;40937;53.594;10.034;2024-01-10T07:53:24;12.82;;;11.70;;
55037;SDS011;40937;53.594;10.034;2024-01-10T07:55:52;13.13;;;11.85;;
55037;SDS011;40937;53.594;10.034;2024-01-10T07:58:19;14.45;;;11.93;;
55037;SDS011;40937;53.594;10.034;2024-01-10T08:00:46;14.27;;;12.88;;
55037;SDS011;40937;53.594;10.034;2024-01-10T08:03:13;12.52;;;11.30;;
55037;SDS011;40937;53.594;10.034;2024-01-10T08:05:41;14.30;;;12.85;;
55037;SDS011;40937;53.594;10.034;2024-01-10T08:08:08;13.93;;;12.52;;
55037;SDS011;40937;53.594;10.034;2024-01-10T08:10:40;12.60;;;11.20;;
55037;SDS011;40937;53.594;10.034;2024-01-10T08:13:07;12.80;;;11.52;;
55037;SDS011;40937;53.594;10.034;2024-01-10T08:15:35;14.52;;;13.13;;
55037;SDS011;40937;53.594;10.034;2024-01-10T08:18:02;14.23;;;12.90;;
55037;SDS011;40937;53.594;10.034;2024-01-10T08:20:30;13.80;;;12.50;;
55037;SDS011;40937;53.594;10.034;2024-01-10T08:22:57;14.57;;;13.23;;
55037;SDS011;40937;53.594;10.034;2024-01-10T08:25:24;17.52;;;13.35;;
55037;SDS011;40937;53.594;10.034;2024-01-10T08:27:52;14.48;;;12.98;;
55037;SDS011;40937;53.594;10.034;2024-01-10T08:30:22;13.68;;;12.38;;
55037;SDS011;40937;53.594;10.034;2024-01-10T08:32:50;15.32;;;13.75;;
55037;SDS011;40937;53.594;10.034;2024-01-10T08:35:19;15.70;;;13.63;;
55037;SDS011;40937;53.594;10.034;2024-01-10T08:37:47;13.30;;;12.10;;
55037;SDS011;40937;53.594;10.034;2024-01-10T08:40:14;13.50;;;12.20;;
55037;SDS011;40937;53.594;10.034;2024-01-10T08:42:42;12.55;;;11.38;;
55037;SDS011;40937;53.594;10.034;2024-01-10T08:45:11;16.02;;;12.60;;
55037;SDS011;40937;53.594;10.034;2024-01-10T08:47:38;12.68;;;11.38;;
55037;SDS011;40937;53.594;10.034;2024-01-10T08:50:06;12.75;;;11.55;;
55037;SDS011;40937;53.594;10.034;2024-01-10T08:52:34;14.20;;;12.73;;
55037;SDS011;40937;53.594;10.034;2024-01-10T08:55:03;12.48;;;11.35;;
55037;SDS011;40937;53.594;10.034;2024-01-10T08:57:31;12.50;;;10.75;;
55037;SDS011;40937;53.594;10.034;2024-01-10T08:59:59;14.30;;;12.65;;
55037;SDS011;40937;53.594;10.034;2024-01-10T09:02:27;13.75;;;12.38;;
55037;SDS011;40937;53.594;10.034;2024-01-10T09:04:54;12.45;;;11.27;;
55037;SDS011;40937;53.594;10.034;2024-01-10T09:07:22;13.35;;;12.05;;
55037;SDS011;40937;53.594;10.034;2024-01-10T09:09:49;14.35;;;12.88;;
55037;SDS011;40937;53.594;10.034;2024-01-10T09:12:16;13.95;;;12.65;;
55037;SDS011;40937;53.594;10.034;2024-01-10T09:14:44;14.68;;;13.23;;
55037;SDS011;40937;53.594;10.034;2024-01-10T09:17:13;13.82;;;12.43;;
55037;SDS011;40937;53.594;10.034;2024-01-10T09:19:42;13.82;;;12.43;;
55037;SDS011;40937;53.594;10.034;2024-01-10T09:22:09;14.15;;;12.75;;
55037;SDS011;40937;53.594;10.034;2024-01-10T09:24:36;13.38;;;11.98;;
55037;SDS011;40937;53.594;10.034;2024-01-10T09:27:03;13.35;;;12.07;;
55037;SDS011;40937;53.594;10.034;2024-01-10T09:29:31;15.13;;;13.63;;
55037;SDS011;40937;53.594;10.034;2024-01-10T09:31:58;14.00;;;12.60;;
55037;SDS011;40937;53.594;10.034;2024-01-10T09:34:25;15.38;;;13.63;;
55037;SDS011;40937;53.594;10.034;2024-01-10T09:36:54;14.75;;;13.43;;
55037;SDS011;40937;53.594;10.034;2024-01-10T09:39:21;14.50;;;13.02;;
55037;SDS011;40937;53.594;10.034;2024-01-10T09:41:49;14.23;;;12.60;;
55037;SDS011;40937;53.594;10.034;2024-01-10T09:44:17;13.35;;;12.13;;
55037;SDS011;40937;53.594;10.034;2024-01-10T09:46:46;14.35;;;12.95;;
55037;SDS011;40937;53.594;10.034;2024-01-10T09:49:17;15.57;;;13.93;;
55037;SDS011;40937;53.594;10.034;2024-01-10T09:51:48;15.93;;;14.38;;
55037;SDS011;40937;53.594;10.034;2024-01-10T09:54:17;15.43;;;13.90;;
55037;SDS011;40937;53.594;10.034;2024-01-10T09:56:45;16.27;;;14.63;;
55037;SDS011;40937;53.594;10.034;2024-01-10T09:59:13;16.67;;;15.00;;
55037;SDS011;40937;53.594;10.034;2024-01-10T10:01:41;15.55;;;14.02;;
55037;SDS011;40937;53.594;10.034;2024-01-10T10:04:09;16.20;;;14.52;;
55037;SDS011;40937;53.594;10.034;2024-01-10T10:06:39;15.45;;;13.85;;
55037;SDS011;40937;53.594;10.034;2024-01-10T10:09:06;16.42;;;14.65;;
55037;SDS011;40937;53.594;10.034;2024-01-10T10:11:35;15.73;;;13.93;;
55037;SDS011;40937;53.594;10.034;2024-01-10T10:14:13;15.18;;;13.88;;
55037;SDS011;40937;53.594;10.034;2024-01-10T10:16:41;16.25;;;14.60;;
55037;SDS011;40937;53.594;10.034;2024-01-10T10:19:08;15.63;;;14.13;;
55037;SDS011;40937;53.594;10.034;2024-01-10T10:21:37;16.42;;;14.77;;
55037;SDS011;40937;53.594;10.034;2024-01-10T10:24:04;18.70;;;14.55;;
55037;SDS011;40937;53.594;10.034;2024-01-10T10:26:33;15.73;;;14.13;;
55037;SDS011;40937;53.594;10.034;2024-01-10T10:29:02;17.70;;;15.00;;
55037;SDS011;40937;53.594;10.034;2024-01-10T10:31:29;17.17;;;15.35;;
55037;SDS011;40937;53.594;10.034;2024-01-10T10:33:59;17.27;;;15.60;;
55037;SDS011;40937;53.594;10.034;2024-01-10T10:36:28;16.75;;;15.13;;
55037;SDS011;40937;53.594;10.034;2024-01-10T10:38:58;17.40;;;15.63;;
55037;SDS011;40937;53.594;10.034;2024-01-10T10:41:27;17.15;;;15.45;;
55037;SDS011;40937;53.594;10.034;2024-01-10T10:43:58;16.80;;;15.05;;
55037;SDS011;40937;53.594;10.034;2024-01-10T10:46:28;18.65;;;16.83;;
55037;SDS011;40937;53.594;10.034;2024-01-10T10:48:59;20.55;;;17.67;;
55037;SDS011;40937;53.594;10.034;2024-01-10T10:51:32;18.27;;;16.48;;
55037;SDS011;40937;53.594;10.034;2024-01-10T10:53:59;18.25;;;16.02;;
55037;SDS011;40937;53.594;10.034;2024-01-10T10:56:27;18.08;;;16.25;;
55037;SDS011;40937;53.594;10.034;2024-01-10T10:58:56;18.25;;;16.10;;
55037;SDS011;40937;53.594;10.034;2024-01-10T11:01:25;17.08;;;14.32;;
55037;SDS011;40937;53.594;10.034;2024-01-10T11:03:54;16.25;;;14.68;;
55037;SDS011;40937;53.594;10.034;2024-01-10T11:06:22;14.65;;;13.27;;
55037;SDS011;40937;53.594;10.034;2024-01-10T11:08:50;15.82;;;14.23;;
55037;SDS011;40937;53.594;10.034;2024-01-10T11:11:23;14.88;;;13.40;;
55037;SDS011;40937;53.594;10.034;2024-01-10T11:14:16;15.10;;;13.70;;
55037;SDS011;40937;53.594;10.034;2024-01-10T11:20:14;15.10;;;13.05;;
55037;SDS011;40937;53.594;10.034;2024-01-10T11:23:02;16.30;;;14.70;;
55037;SDS011;40937;53.594;10.034;2024-01-10T11:25:40;14.77;;;13.18;;
55037;SDS011;40937;53.594;10.034;2024-01-10T11:28:08;13.85;;;12.75;;
55037;SDS011;40937;53.594;10.034;2024-01-10T11:30:48;13.60;;;12.30;;
55037;SDS011;40937;53.594;10.034;2024-01-10T11:33:19;12.20;;;10.82;;
55037;SDS011;40937;53.594;10.034;2024-01-10T11:36:06;12.02;;;10.77;;
55037;SDS011;40937;53.594;10.034;2024-01-10T11:38:38;11.38;;;10.32;;
55037;SDS011;40937;53.594;10.034;2024-01-10T11:41:10;11.13;;;10.23;;
55037;SDS011;40937;53.594;10.034;2024-01-10T11:43:38;10.95;;;10.00;;
55037;SDS011;40937;53.594;10.034;2024-01-10T11:46:06;13.20;;;11.93;;
55037;SDS011;40937;53.594;10.034;2024-01-10T11:48:36;14.15;;;11.57;;
55037;SDS011;40937;53.594;10.034;2024-01-10T11:51:04;12.27;;;10.98;;
55037;SDS011;40937;53.594;10.034;2024-01-10T11:53:42;11.68;;;10.57;;
55037;SDS011;40937;53.594;10.034;2024-01-10T11:56:12;10.85;;;9.93;;
55037;SDS011;40937;53.594;10.034;2024-01-10T11:58:51;10.80;;;9.68;;
55037;SDS011;40937;53.594;10.034;2024-01-10T12:01:19;9.35;;;8.57;;
55037;SDS011;40937;53.594;10.034;2024-01-10T12:03:49;11.73;;;9.32;;
55037;SDS011;40937;53.594;10.034;2024-01-10T12:06:18;9.60;;;8.80;;
55037;SDS011;40937;53.594;10.034;2024-01-10T12:08:47;9.82;;;8.93;;
55037;SDS011;40937;53.594;10.034;2024-01-10T12:11:14;10.25;;;8.50;;
55037;SDS011;40937;53.594;10.034;2024-01-10T12:13:42;9.48;;;8.73;;
55037;SDS011;40937;53.594;10.034;2024-01-10T12:16:10;9.93;;;9.02;;
55037;SDS011;40937;53.594;10.034;2024-01-10T12:18:38;9.82;;;9.02;;
55037;SDS011;40937;53.594;10.034;2024-01-10T12:21:07;9.98;;;9.07;;
55037;SDS011;40937;53.594;10.034;2024-01-10T12:23:36;8.73;;;7.93;;
55037;SDS011;40937;53.594;10.034;2024-01-10T12:26:04;10.00;;;8.98;;
55037;SDS011;40937;53.594;10.034;2024-01-10T12:28:34;9.82;;;8.82;;
55037;SDS011;40937;53.594;10.034;2024-01-10T12:31:03;9.70;;;8.80;;
55037;SDS011;40937;53.594;10.034;2024-01-10T12:33:30;9.70;;;8.80;;
55037;SDS011;40937;53.594;10.034;2024-01-10T12:36:05;9.82;;;8.93;;
55037;SDS011;40937;53.594;10.034;2024-01-10T12:38:35;10.38;;;9.38;;
55037;SDS011;40937;53.594;10.034;2024-01-10T12:41:03;10.40;;;9.27;;
55037;SDS011;40937;53.594;10.034;2024-01-10T12:43:34;10.65;;;9.52;;
55037;SDS011;40937;53.594;10.034;2024-01-10T12:46:02;11.00;;;10.00;;
55037;SDS011;40937;53.594;10.034;2024-01-10T12:48:30;10.10;;;9.10;;
55037;SDS011;40937;53.594;10.034;2024-01-10T12:50:59;11.32;;;10.18;;
55037;SDS011;40937;53.594;10.034;2024-01-10T12:53:28;11.13;;;10.13;;
55037;SDS011;40937;53.594;10.034;2024-01-10T12:55:55;11.13;;;10.02;;
55037;SDS011;40937;53.594;10.034;2024-01-10T12:58:23;11.27;;;9.57;;
55037;SDS011;40937;53.594;10.034;2024-01-10T13:00:51;10.27;;;9.32;;
55037;SDS011;40937;53.594;10.034;2024-01-10T13:03:18;10.38;;;9.48;;
55037;SDS011;40937;53.594;10.034;2024-01-10T13:05:46;10.90;;;9.80;;
55037;SDS011;40937;53.594;10.034;2024-01-10T13:08:13;13.48;;;10.80;;
55037;SDS011;40937;53.594;10.034;2024-01-10T13:10:42;11.80;;;10.20;;
55037;SDS011;40937;53.594;10.034;2024-01-10T13:13:10;11.75;;;10.75;;
55037;SDS011;40937;53.594;10.034;2024-01-10T13:15:38;10.48;;;9.20;;
55037;SDS011;40937;53.594;10.034;2024-01-10T13:18:05;10.02;;;9.13;;
55037;SDS011;40937;53.594;10.034;2024-01-10T13:20:35;10.15;;;9.15;;
55037;SDS011;40937;53.594;10.034;2024-01-10T13:23:03;11.27;;;9.57;;
55037;SDS011;40937;53.594;10.034;2024-01-10T13:25:30;10.10;;;8.95;;
55037;SDS011;40937;53.594;10.034;2024-01-10T13:27:59;10.43;;;9.48;;
55037;SDS011;40937;53.594;10.034;2024-01-10T13:30:26;10.48;;;9.48;;
55037;SDS011;40937;53.594;10.034;2024-01-10T13:32:54;10.98;;;9.98;;
55037;SDS011;40937;53.594;10.034;2024-01-10T13:35:21;11.95;;;10.63;;
55037;SDS011;40937;53.594;10.034;2024-01-10T13:37:49;13.38;;;10.95;;
55037;SDS011;40937;53.594;10.034;2024-01-10T13:40:17;11.80;;;9.50;;
55037;SDS011;40937;53.594;10.034;2024-01-10T13:42:49;11.38;;;10.30;;
55037;SDS011;40937;53.594;10.034;2024-01-10T13:45:18;14.60;;;10.15;;
55037;SDS011;40937;53.594;10.034;2024-01-10T13:47:46;10.80;;;9.73;;
55037;SDS011;40937;53.594;10.034;2024-01-10T13:50:14;11.05;;;9.95;;
55037;SDS011;40937;53.594;10.034;2024-01-10T13:52:42;13.02;;;10.95;;
55037;SDS011;40937;53.594;10.034;2024-01-10T13:55:10;11.68;;;10.60;;
55037;SDS011;40937;53.594;10.034;2024-01-10T13:57:37;11.15;;;10.10;;
55037;SDS011;40937;53.594;10.034;2024-01-10T14:00:05;11.10;;;9.95;;
55037;SDS011;40937;53.594;10.034;2024-01-10T14:02:41;10.75;;;9.55;;
55037;SDS011;40937;53.594;10.034;2024-01-10T14:05:08;9.73;;;8.93;;
55037;SDS011;40937;53.594;10.034;2024-01-10T14:07:36;10.95;;;8.68;;
55037;SDS011;40937;53.594;10.034;2024-01-10T14:10:03;9.80;;;8.82;;
55037;SDS011;40937;53.594;10.034;2024-01-10T14:12:31;10.05;;;9.15;;
55037;SDS011;40937;53.594;10.034;2024-01-10T14:14:58;10.30;;;9.25;;
55037;SDS011;40937;53.594;10.034;2024-01-10T14:17:26;10.23;;;9.23;;
55037;SDS011;40937;53.594;10.034;2024-01-10T14:19:55;10.45;;;9.15;;